A- A+ FrançaisEnglishEspañol中国

Services sur Internet Soldes sur Internet Des idées de cadeaux Météo Météo aéro

La météo à : Autours de vous St-Nazaire-Montoir Tarbes-Lourdes-PyrénéesAlencon-ValframbertNancy-Essey

carte TEMSI

Pour illustration, la carte TEMSI n'est pas mise à jour

La météo aéronautique pour les pilotes, la préparation du vol avec les METAR (METeorological Aerodrome Report, message d'observation des conditions météorologiques pour l'aviation) et Les TAF (Terminal Aerodrome Forecast : message de prévision à court terme des conditions météorologiques pour l'aviation). Et les autres ressources comme les VAC (Visual Approch Chart) et les NOTAM (Notice To Airman) pour préprer les vols.

Aéroport Ivalo (Finlande) / OACI EFIV/ IATA IVL

L'altitude de l'aéroport Ivalo est de 147 m = 482 ft. Il est situé à proximité de Ivalo (Finlande). La météo générale à 5 jours est disponible pour Ivalo situé à 8 km.

METAR de l'aéroport Ivalo - EFIV

EFIV 101550Z VRB03KT CAVOK M14/M15 Q1002

Décodage du METAR de l'aéroport Ivalo (FI)

METAR émis par EFIV le mardi 10 décembre 2019 à 15:50 heure TU, il y a 26 minutes.

La visibilité est de supérieure à 10 km = supérieure à 6.2 sm.

La température est de -14°C = 7 °F et le point rosée est de -15°C = 5 °F . Ce qui correspond à 92% d'humidité relative.

Le QNH est de 1002 hPa = 29.59 inHg

Vent de 3 kt = 6 km/h, orienté à °.

Pas de nuages.

TAF de l'aéroport Ivalo - EFIV

EFIV 101430Z 1015/1018 29008KT CAVOK

EFIV 101430Z 1015/1018 29008KT visibilité supérieure à 10km, aucun nuage à une hauteur inférieure à 5000 ft ou sous l'altitude minimale de secteur et aucun cumulonimbus ou cumulus bourgeonnant, quelle que soit leur altitude

Aéroport à proximité de Ivalo

Météo générale à 5 jours à Ivalo (8 km)Aéroport Pokka (82 km)Aéroport Sodankyla (139 km)Aéroport Kittila (146 km)Aéroport Kirkenes Hoybuktmoen (159 km)Aéroport Enontekio (165 km)Aéroport Aavahelukka (181 km)

VAC de l'aéroport Ivalo - EFIV

La carte d'approche à vue (VAC Visual Approah Chart) est fournie sans aucune garantie de son actualité. Le pilote est le seul responsable de la vérification de sa validité avant de l'utiliser opérationnellement pour préparer un vol ou l'utiliser lors de sa navigation.

VAC de EFIV

Vue aérienne de l'aéroport Ivalo

NOTAM de l'aéroport Ivalo

Les NOTAM sont fournis sans aucune garantie de leur actualité. Le pilote est le seul responsable de la vérification de sa validité avant de l'utiliser opérationnellement pour préparer un vol ou l'utiliser lors de sa navigation.

Pas de NOTAM

Sources des données